Time;durP1;ratioP1;P1;durP2;ratioP2;P2;SDS_P1;SDS_P2;PMS_P1;PMS_P2;Temp;Humidity;BMP_temperature;BMP_pressure;BME280_temperature;BME280_humidity;BME280_pressure;Samples;Min_cycle;Max_cycle;Signal;HPM_P1;HPM_P2
2021/12/21 00:01:55;;;;;;;148.25;127.13;;;;;;;;;;5091271;28;20217;-51
2021/12/21 00:04:21;;;;;;;142.20;123.65;;;;;;;;;;5091092;28;20311;-49
2021/12/21 00:06:47;;;;;;;136.15;120.50;;;;;;;;;;5090907;28;20186;-50
2021/12/21 00:09:13;;;;;;;139.43;119.85;;;;;;;;;;5092914;28;20608;-49
2021/12/21 00:11:39;;;;;;;128.13;111.03;;;;;;;;;;5091875;28;20198;-50
2021/12/21 00:14:23;;;;;;;128.35;108.85;;;;;;;;;;5093249;28;20597;-49
2021/12/21 00:20:10;;;;;;;116.63;100.50;;;;;;;;;;5029348;28;20183;-49
2021/12/21 00:25:21;;;;;;;112.07;95.75;;;;;;;;;;5063743;28;20534;-50
2021/12/21 00:27:48;;;;;;;110.05;94.78;;;;;;;;;;5085375;28;20182;-49
2021/12/21 00:30:15;;;;;;;105.20;91.40;;;;;;;;;;5091050;28;20646;-50
2021/12/21 00:32:41;;;;;;;103.40;89.93;;;;;;;;;;5092623;28;20213;-49
2021/12/21 00:35:07;;;;;;;102.85;87.55;;;;;;;;;;5092477;28;20177;-49
2021/12/21 00:37:33;;;;;;;99.72;85.72;;;;;;;;;;5089741;28;20714;-49
2021/12/21 00:39:59;;;;;;;94.38;82.38;;;;;;;;;;5093129;28;20166;-49
2021/12/21 00:42:25;;;;;;;93.22;82.70;;;;;;;;;;5093090;28;20269;-49
2021/12/21 00:44:52;;;;;;;90.88;79.05;;;;;;;;;;5092491;28;20257;-49
2021/12/21 00:47:18;;;;;;;91.82;76.90;;;;;;;;;;5089601;28;20234;-50
2021/12/21 00:49:46;;;;;;;85.65;73.72;;;;;;;;;;5090394;28;20178;-49
2021/12/21 00:52:15;;;;;;;83.07;73.53;;;;;;;;;;5091792;28;20448;-49
2021/12/21 00:54:42;;;;;;;86.00;74.55;;;;;;;;;;5091726;28;20535;-49
2021/12/21 00:57:09;;;;;;;87.35;72.90;;;;;;;;;;5091304;28;20242;-49
2021/12/21 00:59:35;;;;;;;79.30;68.15;;;;;;;;;;5091925;28;20170;-49
2021/12/21 01:02:01;;;;;;;75.57;65.97;;;;;;;;;;5090426;28;20193;-49
2021/12/21 01:04:34;;;;;;;80.45;67.05;;;;;;;;;;5089273;28;20210;-49
2021/12/21 01:07:14;;;;;;;76.45;64.75;;;;;;;;;;5090891;28;20238;-49
2021/12/21 01:12:57;;;;;;;67.55;59.00;;;;;;;;;;5010604;28;20229;-49
2021/12/21 01:20:38;;;;;;;67.35;56.63;;;;;;;;;;5091704;28;20209;-50
2021/12/21 01:36:12;;;;;;;61.63;51.58;;;;;;;;;;5094745;28;20205;-49
2021/12/21 01:38:50;;;;;;;56.78;49.63;;;;;;;;;;5093838;28;20222;-49
2021/12/21 01:42:07;;;;;;;54.53;48.05;;;;;;;;;;5094606;28;20185;-49
2021/12/21 01:52:25;;;;;;;53.58;45.88;;;;;;;;;;4998134;28;20216;-49
2021/12/21 01:54:51;;;;;;;53.30;46.00;;;;;;;;;;5077496;28;20304;-49
2021/12/21 01:57:17;;;;;;;51.08;45.35;;;;;;;;;;5094926;28;20198;-49
2021/12/21 01:59:44;;;;;;;49.22;42.22;;;;;;;;;;5094299;28;20192;-50
2021/12/21 02:02:11;;;;;;;49.70;43.15;;;;;;;;;;5095928;28;21947;-49
2021/12/21 02:04:38;;;;;;;49.67;41.95;;;;;;;;;;5094832;28;20182;-49
2021/12/21 02:07:04;;;;;;;50.38;41.55;;;;;;;;;;5093935;28;20189;-49
2021/12/21 02:09:37;;;;;;;46.60;41.25;;;;;;;;;;5094724;28;20237;-49
2021/12/21 02:12:07;;;;;;;45.70;40.25;;;;;;;;;;5089677;28;20201;-49
2021/12/21 02:14:33;;;;;;;43.22;38.20;;;;;;;;;;5094314;28;20189;-50
2021/12/21 02:17:19;;;;;;;42.83;37.97;;;;;;;;;;5094201;28;20778;-50
2021/12/21 02:20:09;;;;;;;44.67;38.75;;;;;;;;;;5086824;28;20185;-49
2021/12/21 02:22:41;;;;;;;43.25;37.35;;;;;;;;;;5094605;28;20192;-49
2021/12/21 02:27:59;;;;;;;42.67;35.60;;;;;;;;;;5087706;28;20191;-49
2021/12/21 02:30:25;;;;;;;40.53;35.13;;;;;;;;;;5093027;28;20188;-50
2021/12/21 02:32:52;;;;;;;40.33;33.78;;;;;;;;;;5093309;28;20395;-49
2021/12/21 02:35:18;;;;;;;38.40;32.90;;;;;;;;;;5092921;28;20193;-49
2021/12/21 02:37:45;;;;;;;38.58;32.78;;;;;;;;;;5094451;28;20254;-49
2021/12/21 02:40:11;;;;;;;37.67;32.38;;;;;;;;;;5094267;28;20776;-49
2021/12/21 02:42:37;;;;;;;36.72;31.38;;;;;;;;;;5094360;28;20181;-50
2021/12/21 02:45:04;;;;;;;37.08;31.67;;;;;;;;;;5094143;28;20184;-49
2021/12/21 02:47:30;;;;;;;36.92;31.42;;;;;;;;;;5092360;28;20190;-50
2021/12/21 02:49:56;;;;;;;34.17;30.40;;;;;;;;;;5089335;28;20251;-49
2021/12/21 02:52:22;;;;;;;36.92;30.80;;;;;;;;;;5083084;28;20215;-50
2021/12/21 02:54:48;;;;;;;33.22;28.60;;;;;;;;;;5090970;28;20764;-49
2021/12/21 02:57:14;;;;;;;31.70;27.70;;;;;;;;;;5089365;28;20758;-49
2021/12/21 02:59:40;;;;;;;33.30;28.98;;;;;;;;;;5099273;28;20579;-49
2021/12/21 03:02:06;;;;;;;31.80;28.38;;;;;;;;;;5087919;28;20182;-49
2021/12/21 03:04:32;;;;;;;31.25;26.35;;;;;;;;;;5094901;28;20186;-49
2021/12/21 03:09:41;;;;;;;30.70;26.88;;;;;;;;;;5095344;28;20193;-49
2021/12/21 03:12:32;;;;;;;28.00;25.00;;;;;;;;;;5093117;28;20227;-49
2021/12/21 03:14:59;;;;;;;25.75;22.95;;;;;;;;;;5085711;28;20426;-49
2021/12/21 03:17:25;;;;;;;28.83;24.77;;;;;;;;;;5088778;28;20856;-49
2021/12/21 03:19:51;;;;;;;26.88;23.95;;;;;;;;;;5089419;28;20185;-49
2021/12/21 03:22:17;;;;;;;29.25;24.42;;;;;;;;;;5093478;28;20572;-49
2021/12/21 03:24:43;;;;;;;26.92;23.38;;;;;;;;;;5091866;28;20178;-49
2021/12/21 03:27:10;;;;;;;26.08;23.23;;;;;;;;;;5093740;28;20190;-49
2021/12/21 03:29:36;;;;;;;24.95;22.25;;;;;;;;;;5094112;28;20220;-49
2021/12/21 03:32:03;;;;;;;25.92;23.13;;;;;;;;;;5091156;28;20209;-49
2021/12/21 03:34:29;;;;;;;25.65;22.70;;;;;;;;;;5091270;28;20187;-50
2021/12/21 03:36:55;;;;;;;26.02;22.70;;;;;;;;;;5099332;28;20180;-49
2021/12/21 03:39:22;;;;;;;23.23;20.70;;;;;;;;;;5095137;28;20189;-49
2021/12/21 03:41:55;;;;;;;24.35;21.33;;;;;;;;;;5109924;28;20175;-49
2021/12/21 03:44:22;;;;;;;24.15;21.15;;;;;;;;;;5090754;28;20185;-50
2021/12/21 03:46:52;;;;;;;23.50;20.42;;;;;;;;;;5096247;28;20185;-49
2021/12/21 03:52:05;;;;;;;22.25;19.65;;;;;;;;;;5092592;28;20519;-49
2021/12/21 03:54:31;;;;;;;22.20;19.80;;;;;;;;;;5089989;28;20243;-49
2021/12/21 03:56:58;;;;;;;22.05;19.65;;;;;;;;;;5092385;28;20583;-49
2021/12/21 03:59:24;;;;;;;22.83;19.42;;;;;;;;;;5093944;28;20185;-49
2021/12/21 04:01:50;;;;;;;22.73;19.33;;;;;;;;;;5092118;28;20201;-49
2021/12/21 04:04:20;;;;;;;21.73;18.85;;;;;;;;;;5091626;28;20185;-49
2021/12/21 04:06:47;;;;;;;21.30;18.27;;;;;;;;;;5075213;28;20238;-49
2021/12/21 04:09:13;;;;;;;20.08;17.95;;;;;;;;;;5084609;28;20550;-50
2021/12/21 04:11:39;;;;;;;20.38;18.20;;;;;;;;;;5084259;28;20272;-49
2021/12/21 04:14:05;;;;;;;19.70;17.23;;;;;;;;;;5092304;28;20230;-49
2021/12/21 04:16:31;;;;;;;19.65;17.65;;;;;;;;;;5089611;28;20297;-49
2021/12/21 04:18:58;;;;;;;19.75;17.20;;;;;;;;;;5092411;28;20178;-49
2021/12/21 04:21:24;;;;;;;18.92;16.55;;;;;;;;;;5092353;28;20264;-50
2021/12/21 04:23:50;;;;;;;18.42;16.00;;;;;;;;;;5092252;28;20192;-49
2021/12/21 04:26:16;;;;;;;18.25;16.20;;;;;;;;;;5092133;28;20178;-49
2021/12/21 04:28:43;;;;;;;17.88;15.98;;;;;;;;;;5091735;28;20218;-49
2021/12/21 04:31:10;;;;;;;18.17;16.25;;;;;;;;;;5090756;28;20763;-49
2021/12/21 04:33:36;;;;;;;17.15;14.80;;;;;;;;;;5088686;28;20194;-49
2021/12/21 04:36:03;;;;;;;18.50;15.73;;;;;;;;;;5092500;28;20424;-49
2021/12/21 04:38:33;;;;;;;17.15;14.75;;;;;;;;;;5091758;28;20178;-49
2021/12/21 04:41:07;;;;;;;16.33;14.50;;;;;;;;;;5093107;28;20174;-49
2021/12/21 04:43:33;;;;;;;16.38;14.48;;;;;;;;;;5089450;28;20223;-49
2021/12/21 04:45:59;;;;;;;18.02;14.57;;;;;;;;;;5090552;28;20609;-49
2021/12/21 04:48:25;;;;;;;16.17;14.07;;;;;;;;;;5091872;28;20205;-49
2021/12/21 04:50:51;;;;;;;14.70;13.13;;;;;;;;;;5084199;28;20189;-49
2021/12/21 04:53:17;;;;;;;16.10;13.00;;;;;;;;;;5091451;28;20256;-49
2021/12/21 04:55:43;;;;;;;16.77;13.80;;;;;;;;;;5091692;28;20205;-49
2021/12/21 04:58:10;;;;;;;15.38;13.55;;;;;;;;;;5091458;28;20224;-49
2021/12/21 05:00:36;;;;;;;13.43;11.85;;;;;;;;;;5093278;28;20318;-49
2021/12/21 05:03:03;;;;;;;13.80;12.38;;;;;;;;;;5083253;28;20188;-49
2021/12/21 05:05:29;;;;;;;14.48;12.75;;;;;;;;;;5090577;28;20190;-49
2021/12/21 05:08:07;;;;;;;16.00;12.88;;;;;;;;;;5093041;28;20503;-49
2021/12/21 05:10:34;;;;;;;13.73;12.00;;;;;;;;;;5094922;28;20189;-49
2021/12/21 05:13:00;;;;;;;14.73;12.43;;;;;;;;;;5093409;28;20209;-49
2021/12/21 05:15:26;;;;;;;13.50;11.93;;;;;;;;;;5086305;28;20529;-49
2021/12/21 05:17:52;;;;;;;12.70;11.25;;;;;;;;;;5093576;28;20190;-49
2021/12/21 05:20:18;;;;;;;14.15;12.00;;;;;;;;;;5097081;28;20220;-49
2021/12/21 05:22:44;;;;;;;13.00;11.32;;;;;;;;;;5095234;28;20185;-49
2021/12/21 05:25:10;;;;;;;16.17;11.27;;;;;;;;;;5094632;28;20193;-49
2021/12/21 05:27:36;;;;;;;13.18;11.77;;;;;;;;;;5095715;28;20178;-49
2021/12/21 05:30:03;;;;;;;12.80;10.52;;;;;;;;;;5090901;28;20272;-49
2021/12/21 05:32:29;;;;;;;13.68;10.80;;;;;;;;;;5094989;28;20247;-50
2021/12/21 05:34:54;;;;;;;12.38;10.45;;;;;;;;;;5095082;28;20198;-49
2021/12/21 05:37:20;;;;;;;13.25;10.63;;;;;;;;;;5095293;28;20182;-49
2021/12/21 05:40:11;;;;;;;13.45;11.18;;;;;;;;;;5096500;28;20178;-49
2021/12/21 05:42:37;;;;;;;13.60;10.63;;;;;;;;;;5094251;28;20218;-49
2021/12/21 05:45:04;;;;;;;11.88;9.88;;;;;;;;;;5095560;28;20190;-49
2021/12/21 05:47:29;;;;;;;13.20;9.95;;;;;;;;;;5092985;28;20322;-49
2021/12/21 05:49:55;;;;;;;11.38;9.82;;;;;;;;;;5095492;28;20875;-48
2021/12/21 05:52:21;;;;;;;10.93;9.75;;;;;;;;;;5115530;28;20231;-49
2021/12/21 05:54:49;;;;;;;10.88;9.52;;;;;;;;;;5114096;28;20303;-49
2021/12/21 05:57:15;;;;;;;12.15;9.90;;;;;;;;;;5115480;28;20176;-49
2021/12/21 05:59:41;;;;;;;11.23;9.60;;;;;;;;;;5115629;28;20181;-49
2021/12/21 06:02:07;;;;;;;12.18;9.90;;;;;;;;;;5116605;28;20649;-49
2021/12/21 06:04:34;;;;;;;13.93;10.10;;;;;;;;;;5115008;28;20185;-49
2021/12/21 06:07:00;;;;;;;15.20;10.48;;;;;;;;;;5115052;28;20262;-49
2021/12/21 06:09:27;;;;;;;13.82;10.77;;;;;;;;;;5116077;28;20189;-49
2021/12/21 06:12:07;;;;;;;12.95;10.77;;;;;;;;;;5115523;28;20184;-49
2021/12/21 06:27:48;;;;;;;12.63;8.38;;;;;;;;;;5114223;28;20181;-49
2021/12/21 06:30:15;;;;;;;10.90;8.50;;;;;;;;;;5116164;28;20920;-49
2021/12/21 06:32:41;;;;;;;12.13;9.02;;;;;;;;;;5111325;28;20207;-49
2021/12/21 06:35:08;;;;;;;12.13;8.88;;;;;;;;;;5113246;28;20185;-49
2021/12/21 06:37:34;;;;;;;11.82;8.25;;;;;;;;;;5114918;28;20184;-49
2021/12/21 06:40:00;;;;;;;9.27;7.40;;;;;;;;;;5115758;28;20184;-49
2021/12/21 06:42:28;;;;;;;9.00;7.35;;;;;;;;;;5114753;28;20253;-49
2021/12/21 06:44:57;;;;;;;9.70;7.63;;;;;;;;;;5111779;28;20257;-49
2021/12/21 06:52:53;;;;;;;8.65;6.82;;;;;;;;;;5087484;28;20212;-48
2021/12/21 06:55:19;;;;;;;11.70;7.47;;;;;;;;;;5091753;28;20545;-48
2021/12/21 06:57:45;;;;;;;8.00;6.35;;;;;;;;;;5093560;28;20181;-48
2021/12/21 07:00:12;;;;;;;9.18;7.03;;;;;;;;;;5092501;28;20510;-48
2021/12/21 07:02:38;;;;;;;8.98;6.72;;;;;;;;;;5092786;28;20188;-48
2021/12/21 07:05:05;;;;;;;13.27;6.72;;;;;;;;;;5093443;28;20188;-48
2021/12/21 07:07:31;;;;;;;9.25;6.78;;;;;;;;;;5094173;28;20213;-48
2021/12/21 07:10:03;;;;;;;11.98;7.50;;;;;;;;;;5092636;28;20276;-49
2021/12/21 07:20:28;;;;;;;9.88;6.75;;;;;;;;;;5093438;28;20186;-48
2021/12/21 07:22:54;;;;;;;9.57;7.30;;;;;;;;;;5088560;28;20197;-48
2021/12/21 07:25:19;;;;;;;10.52;7.13;;;;;;;;;;5089050;28;20209;-48
2021/12/21 07:27:46;;;;;;;8.02;6.28;;;;;;;;;;5085796;28;20219;-48
2021/12/21 07:30:12;;;;;;;10.93;7.75;;;;;;;;;;5085864;28;20190;-48
2021/12/21 07:32:38;;;;;;;10.27;7.30;;;;;;;;;;5084789;28;20604;-48
2021/12/21 07:35:05;;;;;;;10.95;7.25;;;;;;;;;;5090422;28;20566;-48
2021/12/21 07:37:31;;;;;;;12.48;7.28;;;;;;;;;;5094118;28;20196;-48
2021/12/21 07:39:57;;;;;;;9.93;7.47;;;;;;;;;;5092742;28;20481;-49
2021/12/21 07:42:23;;;;;;;9.48;7.75;;;;;;;;;;5092287;28;20560;-49
2021/12/21 07:44:50;;;;;;;11.07;8.20;;;;;;;;;;5093318;28;20181;-49
2021/12/21 07:47:17;;;;;;;12.98;8.45;;;;;;;;;;5091668;28;20457;-48
2021/12/21 07:49:43;;;;;;;9.73;7.72;;;;;;;;;;5089138;28;20200;-48
2021/12/21 07:52:10;;;;;;;12.38;7.75;;;;;;;;;;5092095;28;20910;-48
2021/12/21 07:54:37;;;;;;;10.02;7.43;;;;;;;;;;5091283;28;20185;-48
2021/12/21 07:57:03;;;;;;;9.10;7.43;;;;;;;;;;5093069;28;20259;-48
2021/12/21 07:59:29;;;;;;;10.65;7.53;;;;;;;;;;5092810;28;20178;-48
2021/12/21 08:01:55;;;;;;;8.93;7.07;;;;;;;;;;5091791;28;20575;-48
2021/12/21 08:04:26;;;;;;;8.68;7.05;;;;;;;;;;5092270;28;20181;-48
2021/12/21 08:06:54;;;;;;;8.98;6.65;;;;;;;;;;5089329;28;20206;-48
2021/12/21 08:09:20;;;;;;;10.50;7.07;;;;;;;;;;5093247;28;20281;-48
2021/12/21 08:14:31;;;;;;;12.02;8.05;;;;;;;;;;5092884;28;20235;-48
2021/12/21 08:16:57;;;;;;;13.73;8.93;;;;;;;;;;5093899;28;20203;-48
2021/12/21 08:19:22;;;;;;;13.88;8.18;;;;;;;;;;5093145;28;20178;-48
2021/12/21 08:21:48;;;;;;;9.95;7.32;;;;;;;;;;5093428;28;20209;-48
2021/12/21 08:24:14;;;;;;;10.48;7.78;;;;;;;;;;5092829;28;20189;-49
2021/12/21 08:26:41;;;;;;;8.60;7.03;;;;;;;;;;5093402;28;20269;-49
2021/12/21 08:29:07;;;;;;;10.30;7.15;;;;;;;;;;5092398;28;20556;-49
2021/12/21 08:31:33;;;;;;;7.80;6.88;;;;;;;;;;5091123;28;20201;-49
2021/12/21 08:34:00;;;;;;;9.50;7.32;;;;;;;;;;5092442;28;20178;-49
2021/12/21 08:36:25;;;;;;;10.65;7.28;;;;;;;;;;5093406;28;20186;-49
2021/12/21 08:38:52;;;;;;;10.95;7.60;;;;;;;;;;5092994;28;20185;-49
2021/12/21 08:41:20;;;;;;;8.95;7.43;;;;;;;;;;5093463;28;20177;-49
2021/12/21 08:43:46;;;;;;;10.35;7.30;;;;;;;;;;5083643;28;20307;-49
2021/12/21 08:46:12;;;;;;;8.85;7.35;;;;;;;;;;5093517;28;20542;-49
2021/12/21 08:48:38;;;;;;;8.00;6.85;;;;;;;;;;5093159;28;20186;-49
2021/12/21 08:51:05;;;;;;;9.68;7.30;;;;;;;;;;5095649;28;20201;-49
2021/12/21 08:53:32;;;;;;;8.98;7.07;;;;;;;;;;5095562;28;20233;-48
2021/12/21 08:55:58;;;;;;;9.93;7.07;;;;;;;;;;5099879;28;20295;-48
2021/12/21 08:58:24;;;;;;;9.05;6.68;;;;;;;;;;5101814;28;20173;-48
2021/12/21 09:00:50;;;;;;;9.93;7.30;;;;;;;;;;5100632;28;20195;-48
2021/12/21 09:03:17;;;;;;;8.73;7.10;;;;;;;;;;5100240;28;20204;-48
2021/12/21 09:05:43;;;;;;;8.38;7.05;;;;;;;;;;5100670;28;20205;-49
2021/12/21 09:08:10;;;;;;;10.55;7.38;;;;;;;;;;5097729;28;20205;-49
2021/12/21 09:10:38;;;;;;;8.02;6.85;;;;;;;;;;5097271;28;20189;-48
2021/12/21 09:13:05;;;;;;;8.70;6.82;;;;;;;;;;5097780;28;20247;-48
2021/12/21 09:15:31;;;;;;;8.70;5.70;;;;;;;;;;5107205;28;20227;-49
2021/12/21 09:17:58;;;;;;;7.85;5.03;;;;;;;;;;5092971;28;20180;-49
2021/12/21 09:20:25;;;;;;;5.72;4.30;;;;;;;;;;5107838;28;20502;-49
2021/12/21 09:22:51;;;;;;;7.10;3.53;;;;;;;;;;5101915;28;20193;-50
2021/12/21 09:25:18;;;;;;;6.00;3.97;;;;;;;;;;5091379;28;20242;-49
2021/12/21 09:27:44;;;;;;;10.52;4.47;;;;;;;;;;5102003;28;20300;-49
2021/12/21 09:30:12;;;;;;;7.43;4.43;;;;;;;;;;5100927;28;20182;-49
2021/12/21 09:32:38;;;;;;;7.97;4.00;;;;;;;;;;5099465;28;20204;-49
2021/12/21 09:35:05;;;;;;;5.68;3.60;;;;;;;;;;5099212;28;20173;-49
2021/12/21 09:37:32;;;;;;;8.10;3.70;;;;;;;;;;5094355;28;20544;-49
2021/12/21 09:39:58;;;;;;;5.13;4.07;;;;;;;;;;5101683;28;20162;-49
2021/12/21 09:42:28;;;;;;;6.63;4.38;;;;;;;;;;5095725;28;20186;-48
2021/12/21 09:44:55;;;;;;;6.05;3.92;;;;;;;;;;5103832;28;20204;-49
2021/12/21 09:47:21;;;;;;;6.10;3.97;;;;;;;;;;5104736;28;20452;-48
2021/12/21 09:49:48;;;;;;;7.97;4.50;;;;;;;;;;5103199;28;20499;-49
2021/12/21 09:52:18;;;;;;;5.22;3.63;;;;;;;;;;5094720;28;20213;-49
2021/12/21 09:54:44;;;;;;;6.25;4.07;;;;;;;;;;5105222;28;20260;-48
2021/12/21 09:57:10;;;;;;;5.18;3.90;;;;;;;;;;5108715;28;20177;-49
2021/12/21 09:59:37;;;;;;;9.68;4.13;;;;;;;;;;5104922;28;20192;-49
2021/12/21 10:02:04;;;;;;;8.55;4.10;;;;;;;;;;5097318;28;20187;-50
2021/12/21 10:04:30;;;;;;;8.40;4.53;;;;;;;;;;5105686;28;20273;-49
2021/12/21 10:06:57;;;;;;;5.78;3.70;;;;;;;;;;5107806;28;20201;-50
2021/12/21 10:09:24;;;;;;;7.30;3.75;;;;;;;;;;5103060;28;20238;-49
2021/12/21 10:11:51;;;;;;;7.63;3.72;;;;;;;;;;5111057;28;20279;-50
2021/12/21 10:14:18;;;;;;;7.97;3.92;;;;;;;;;;5111376;28;20169;-49
2021/12/21 10:16:45;;;;;;;6.28;3.60;;;;;;;;;;5096627;28;20215;-50
2021/12/21 10:19:24;;;;;;;7.13;3.70;;;;;;;;;;5096295;28;20513;-50
2021/12/21 10:21:51;;;;;;;6.45;3.45;;;;;;;;;;5096359;28;20177;-50
2021/12/21 10:24:27;;;;;;;8.57;3.92;;;;;;;;;;5095918;28;20181;-50
2021/12/21 10:26:56;;;;;;;6.40;3.55;;;;;;;;;;5099961;28;20205;-50
2021/12/21 10:29:22;;;;;;;8.68;3.40;;;;;;;;;;5084892;28;20602;-50
2021/12/21 10:31:49;;;;;;;3.95;3.50;;;;;;;;;;5090334;28;20259;-50
2021/12/21 10:34:16;;;;;;;5.35;3.35;;;;;;;;;;5103046;28;20204;-50
2021/12/21 10:36:47;;;;;;;9.63;3.95;;;;;;;;;;5111219;28;20192;-50
2021/12/21 10:39:20;;;;;;;11.48;3.90;;;;;;;;;;5114988;28;20181;-50
2021/12/21 10:41:46;;;;;;;5.90;3.85;;;;;;;;;;5090526;28;20182;-50
2021/12/21 10:44:13;;;;;;;5.65;3.63;;;;;;;;;;5088119;28;20277;-50
2021/12/21 10:46:40;;;;;;;7.90;3.47;;;;;;;;;;5112375;28;20182;-51
2021/12/21 10:49:07;;;;;;;7.00;4.00;;;;;;;;;;5108989;28;20181;-51
2021/12/21 10:51:33;;;;;;;8.57;3.65;;;;;;;;;;5097525;28;20217;-50
2021/12/21 10:53:59;;;;;;;5.30;3.30;;;;;;;;;;5093267;28;20503;-50
2021/12/21 10:56:26;;;;;;;8.20;3.55;;;;;;;;;;5094330;28;20210;-50
2021/12/21 10:58:52;;;;;;;3.92;3.53;;;;;;;;;;5094416;28;20583;-50
2021/12/21 11:01:22;;;;;;;10.48;3.30;;;;;;;;;;5094261;28;20564;-50
2021/12/21 11:03:54;;;;;;;6.72;3.20;;;;;;;;;;5093286;28;20559;-51
2021/12/21 11:06:30;;;;;;;4.70;3.22;;;;;;;;;;5094874;28;20173;-50
2021/12/21 11:08:57;;;;;;;3.67;3.20;;;;;;;;;;5087633;28;20174;-50
2021/12/21 11:11:26;;;;;;;7.90;3.40;;;;;;;;;;5093396;28;20237;-51
2021/12/21 11:14:09;;;;;;;4.70;3.00;;;;;;;;;;5089168;28;20198;-50
2021/12/21 11:16:42;;;;;;;3.97;3.17;;;;;;;;;;5094099;28;20537;-50
2021/12/21 11:19:09;;;;;;;4.10;3.08;;;;;;;;;;5094163;28;20209;-50
2021/12/21 11:21:35;;;;;;;4.43;2.97;;;;;;;;;;5093164;28;20189;-50
2021/12/21 11:24:03;;;;;;;4.55;2.92;;;;;;;;;;5092809;28;20186;-51
2021/12/21 11:26:29;;;;;;;3.15;2.75;;;;;;;;;;5093344;28;20258;-51
2021/12/21 11:28:56;;;;;;;5.75;3.13;;;;;;;;;;5092994;28;20243;-51
2021/12/21 11:31:23;;;;;;;5.72;2.83;;;;;;;;;;5092705;28;20223;-51
2021/12/21 11:33:56;;;;;;;3.40;3.10;;;;;;;;;;5092927;28;20576;-50
2021/12/21 11:39:07;;;;;;;3.72;2.92;;;;;;;;;;5093632;28;20270;-51
2021/12/21 11:41:34;;;;;;;3.85;2.88;;;;;;;;;;5091493;28;20189;-51
2021/12/21 11:44:10;;;;;;;5.53;2.90;;;;;;;;;;5091067;28;20177;-51
2021/12/21 11:46:58;;;;;;;3.45;2.80;;;;;;;;;;5089684;28;20181;-50
2021/12/21 11:49:30;;;;;;;3.80;2.60;;;;;;;;;;5089718;28;20181;-51
2021/12/21 11:52:09;;;;;;;3.80;2.65;;;;;;;;;;5092756;28;20301;-51
2021/12/21 11:54:42;;;;;;;4.70;2.50;;;;;;;;;;5092826;28;20543;-50
2021/12/21 11:57:08;;;;;;;2.83;2.55;;;;;;;;;;5093095;28;20440;-50
2021/12/21 11:59:34;;;;;;;3.70;2.67;;;;;;;;;;5092177;28;20185;-50
2021/12/21 12:02:02;;;;;;;2.70;2.45;;;;;;;;;;5093373;28;20173;-52
2021/12/21 12:04:28;;;;;;;3.92;2.70;;;;;;;;;;5092393;28;20178;-51
2021/12/21 12:06:55;;;;;;;2.88;2.30;;;;;;;;;;5092866;28;20184;-50
2021/12/21 12:09:24;;;;;;;4.32;2.30;;;;;;;;;;5091472;28;20190;-51
2021/12/21 12:11:50;;;;;;;5.78;2.63;;;;;;;;;;5093466;28;20247;-50
2021/12/21 12:14:20;;;;;;;3.10;2.28;;;;;;;;;;5091793;28;20189;-51
2021/12/21 12:16:56;;;;;;;3.28;2.80;;;;;;;;;;5081472;28;20431;-50
2021/12/21 12:19:23;;;;;;;2.67;2.13;;;;;;;;;;5091342;28;20181;-50
2021/12/21 12:21:59;;;;;;;3.05;2.30;;;;;;;;;;5093285;28;20185;-50
2021/12/21 12:24:27;;;;;;;10.93;2.50;;;;;;;;;;5092607;28;20185;-50
2021/12/21 12:27:07;;;;;;;6.15;2.53;;;;;;;;;;5092582;28;20542;-50
2021/12/21 12:29:42;;;;;;;4.15;2.42;;;;;;;;;;5091007;28;20213;-50
2021/12/21 12:32:08;;;;;;;5.05;2.30;;;;;;;;;;5092316;28;20261;-48
2021/12/21 12:34:38;;;;;;;2.95;2.33;;;;;;;;;;5078708;28;20402;-49
2021/12/21 12:37:18;;;;;;;4.63;2.35;;;;;;;;;;5092080;28;20169;-50
2021/12/21 12:39:45;;;;;;;5.65;2.55;;;;;;;;;;5092710;28;20176;-50
2021/12/21 12:42:13;;;;;;;4.35;2.58;;;;;;;;;;5081717;28;20244;-50
2021/12/21 12:44:40;;;;;;;3.67;2.63;;;;;;;;;;5092198;28;20185;-50
2021/12/21 12:47:07;;;;;;;5.78;2.40;;;;;;;;;;5090176;28;20209;-51
2021/12/21 12:49:34;;;;;;;5.85;2.40;;;;;;;;;;5089707;28;20242;-51
2021/12/21 12:52:03;;;;;;;3.97;2.17;;;;;;;;;;5108029;28;20205;-51
2021/12/21 12:54:30;;;;;;;6.07;2.30;;;;;;;;;;5112610;28;20177;-51
2021/12/21 12:56:56;;;;;;;3.42;2.35;;;;;;;;;;5113007;28;20504;-51
2021/12/21 12:59:22;;;;;;;6.45;2.35;;;;;;;;;;5106333;28;20185;-51
2021/12/21 13:01:49;;;;;;;2.80;2.25;;;;;;;;;;5114157;28;20176;-51
2021/12/21 13:04:16;;;;;;;4.57;2.50;;;;;;;;;;5112446;28;20211;-51
2021/12/21 13:06:43;;;;;;;2.80;2.17;;;;;;;;;;5114187;28;20222;-51
2021/12/21 13:09:14;;;;;;;3.40;2.50;;;;;;;;;;5110038;28;20181;-51
2021/12/21 13:11:40;;;;;;;3.38;2.33;;;;;;;;;;5105173;28;20204;-51
2021/12/21 13:14:06;;;;;;;2.40;2.20;;;;;;;;;;5100632;28;20269;-51
2021/12/21 13:16:36;;;;;;;2.25;2.10;;;;;;;;;;5093838;28;20170;-51
2021/12/21 13:19:07;;;;;;;3.40;2.25;;;;;;;;;;5097100;28;20180;-50
2021/12/21 13:21:35;;;;;;;2.60;2.03;;;;;;;;;;5114048;28;20197;-50
2021/12/21 13:24:03;;;;;;;4.53;2.30;;;;;;;;;;5109684;28;20705;-51
2021/12/21 13:26:37;;;;;;;3.22;2.10;;;;;;;;;;5113996;28;20173;-51
2021/12/21 13:29:04;;;;;;;2.90;2.22;;;;;;;;;;5114381;28;20195;-51
2021/12/21 13:31:30;;;;;;;4.05;2.50;;;;;;;;;;5117497;28;20203;-51
2021/12/21 13:33:58;;;;;;;2.53;2.33;;;;;;;;;;5116623;28;20173;-51
2021/12/21 13:36:38;;;;;;;3.83;1.80;;;;;;;;;;5117671;28;20173;-51
2021/12/21 13:39:18;;;;;;;2.10;1.95;;;;;;;;;;5116381;28;20177;-51
2021/12/21 13:41:53;;;;;;;2.75;2.03;;;;;;;;;;5116959;28;20180;-50
2021/12/21 13:44:32;;;;;;;3.20;1.92;;;;;;;;;;5115292;28;20183;-50
2021/12/21 13:47:00;;;;;;;4.20;1.80;;;;;;;;;;5117495;28;20177;-50
2021/12/21 13:49:26;;;;;;;3.13;1.98;;;;;;;;;;5115310;28;20177;-50
2021/12/21 13:51:57;;;;;;;4.20;1.98;;;;;;;;;;5117077;28;20280;-50
2021/12/21 13:54:25;;;;;;;3.30;1.90;;;;;;;;;;5104394;28;20180;-50
2021/12/21 13:56:51;;;;;;;2.00;1.77;;;;;;;;;;5097105;28;20181;-54
2021/12/21 13:59:19;;;;;;;2.00;1.90;;;;;;;;;;5108804;28;20174;-50
2021/12/21 14:01:47;;;;;;;3.22;2.53;;;;;;;;;;5117130;28;20559;-50
2021/12/21 14:04:14;;;;;;;2.25;2.05;;;;;;;;;;5116316;28;20177;-50
2021/12/21 14:06:41;;;;;;;1.92;1.77;;;;;;;;;;5116411;28;20189;-51
2021/12/21 14:09:08;;;;;;;2.28;2.08;;;;;;;;;;5098275;28;20465;-50
2021/12/21 14:11:35;;;;;;;2.03;1.83;;;;;;;;;;5106679;28;20282;-50
2021/12/21 14:14:09;;;;;;;2.15;2.05;;;;;;;;;;5115601;28;20184;-50
2021/12/21 14:16:39;;;;;;;2.63;1.90;;;;;;;;;;5115069;28;20449;-50
2021/12/21 14:19:07;;;;;;;2.15;1.90;;;;;;;;;;5108268;28;20203;-50
2021/12/21 14:21:36;;;;;;;3.45;1.95;;;;;;;;;;5097267;28;20173;-51
2021/12/21 14:24:05;;;;;;;2.20;1.98;;;;;;;;;;5113135;28;20177;-50
2021/12/21 14:26:36;;;;;;;2.22;2.03;;;;;;;;;;5113267;28;20229;-51
2021/12/21 14:29:07;;;;;;;2.55;1.80;;;;;;;;;;5115007;28;20185;-51
2021/12/21 14:31:47;;;;;;;1.90;1.80;;;;;;;;;;5115219;28;20519;-50
2021/12/21 14:34:19;;;;;;;1.77;1.67;;;;;;;;;;5113836;28;20173;-51
2021/12/21 14:36:45;;;;;;;2.40;2.00;;;;;;;;;;5114546;28;20218;-51
2021/12/21 14:39:12;;;;;;;3.03;1.85;;;;;;;;;;5114524;28;20185;-51
2021/12/21 14:41:43;;;;;;;2.15;1.75;;;;;;;;;;5114107;28;20181;-51
2021/12/21 14:44:09;;;;;;;3.13;1.83;;;;;;;;;;5114624;28;20280;-51
2021/12/21 14:46:36;;;;;;;2.65;1.83;;;;;;;;;;5112992;28;20192;-51
2021/12/21 14:49:05;;;;;;;1.70;1.60;;;;;;;;;;5110351;28;20210;-51
2021/12/21 14:51:37;;;;;;;2.15;1.75;;;;;;;;;;5102094;28;20248;-51
2021/12/21 14:54:07;;;;;;;2.00;1.83;;;;;;;;;;5091574;28;20545;-51
2021/12/21 14:56:36;;;;;;;1.90;1.80;;;;;;;;;;5093137;28;20204;-51
2021/12/21 14:59:04;;;;;;;1.83;1.73;;;;;;;;;;5094859;28;20174;-51
2021/12/21 15:01:41;;;;;;;1.45;1.35;;;;;;;;;;5092385;28;20178;-51
2021/12/21 15:04:18;;;;;;;3.22;1.77;;;;;;;;;;5092151;28;20181;-51
2021/12/21 15:06:44;;;;;;;1.88;1.73;;;;;;;;;;5092565;28;20188;-50
2021/12/21 15:09:10;;;;;;;1.98;1.60;;;;;;;;;;5092160;28;20184;-51
2021/12/21 15:11:36;;;;;;;2.05;1.85;;;;;;;;;;5093645;28;20209;-51
2021/12/21 15:14:02;;;;;;;4.07;1.95;;;;;;;;;;5076513;28;20188;-51
2021/12/21 15:16:28;;;;;;;5.10;1.80;;;;;;;;;;5092473;28;20182;-52
2021/12/21 15:18:54;;;;;;;2.92;1.90;;;;;;;;;;5093265;28;20548;-51
2021/12/21 15:21:20;;;;;;;3.17;1.63;;;;;;;;;;5094742;28;20184;-51
2021/12/21 15:23:46;;;;;;;1.90;1.60;;;;;;;;;;5091459;28;20548;-51
2021/12/21 15:26:12;;;;;;;2.05;1.85;;;;;;;;;;5092815;28;20303;-51
2021/12/21 15:28:38;;;;;;;3.03;1.70;;;;;;;;;;5093933;28;20174;-51
2021/12/21 15:31:04;;;;;;;2.22;1.60;;;;;;;;;;5093215;28;20189;-51
2021/12/21 15:33:30;;;;;;;3.10;1.60;;;;;;;;;;5090653;28;20205;-51
2021/12/21 15:35:56;;;;;;;2.45;2.00;;;;;;;;;;5093583;28;20703;-51
2021/12/21 15:38:22;;;;;;;1.90;1.65;;;;;;;;;;5093442;28;20189;-51
2021/12/21 15:40:50;;;;;;;2.20;1.60;;;;;;;;;;5094032;28;20181;-51
2021/12/21 15:43:16;;;;;;;1.65;1.55;;;;;;;;;;5094101;28;20219;-51
2021/12/21 15:45:42;;;;;;;1.80;1.70;;;;;;;;;;5088956;28;20438;-51
2021/12/21 15:48:08;;;;;;;1.80;1.67;;;;;;;;;;5092087;28;20181;-51
2021/12/21 15:50:34;;;;;;;2.45;1.85;;;;;;;;;;5093799;28;20189;-51
2021/12/21 15:53:00;;;;;;;2.00;1.80;;;;;;;;;;5094881;28;20262;-51